createdAt,value
2022-10-06T00:02:24.427Z,0.63
2022-10-06T00:04:51.158Z,0.60
2022-10-06T00:07:17.964Z,0.63
2022-10-06T00:09:44.636Z,0.32
2022-10-06T00:12:11.587Z,0.53
2022-10-06T00:14:38.272Z,2.55
2022-10-06T00:17:05.155Z,0.60
2022-10-06T00:19:31.921Z,0.50
2022-10-06T00:21:58.687Z,0.52
2022-10-06T00:24:25.401Z,0.52
2022-10-06T00:26:52.189Z,0.80
2022-10-06T00:29:18.947Z,0.50
2022-10-06T00:31:46.044Z,0.70
2022-10-06T00:34:13.095Z,0.60
2022-10-06T00:36:40.090Z,0.80
2022-10-06T00:39:06.758Z,0.50
2022-10-06T00:41:33.756Z,0.70
2022-10-06T00:44:01.647Z,0.77
2022-10-06T00:46:47.441Z,0.30
2022-10-06T00:49:14.447Z,1.02
2022-10-06T00:52:04.082Z,0.70
2022-10-06T00:54:33.123Z,0.50
2022-10-06T00:57:01.533Z,0.60
2022-10-06T00:59:28.990Z,0.80
2022-10-06T01:02:22.909Z,0.82
2022-10-06T01:04:55.708Z,1.10
2022-10-06T01:07:26.207Z,0.88
2022-10-06T01:09:53.238Z,0.60
2022-10-06T01:12:21.063Z,0.20
2022-10-06T01:14:48.595Z,0.52
2022-10-06T01:17:23.592Z,1.25
2022-10-06T01:19:54.807Z,0.93
2022-10-06T01:22:55.654Z,0.40
2022-10-06T01:25:22.760Z,0.77
2022-10-06T01:27:56.137Z,0.80
2022-10-06T01:30:37.502Z,0.60
2022-10-06T01:33:04.430Z,0.63
2022-10-06T01:35:32.924Z,0.90
2022-10-06T01:38:00.379Z,0.55
2022-10-06T01:40:29.252Z,0.85
2022-10-06T01:42:59.082Z,0.70
2022-10-06T01:45:27.169Z,0.70
2022-10-06T01:47:54.148Z,0.90
2022-10-06T01:52:49.534Z,0.75
2022-10-06T01:55:17.194Z,0.90
2022-10-06T01:57:44.211Z,0.90
2022-10-06T02:00:12.766Z,0.85
2022-10-06T02:02:43.873Z,0.77
2022-10-06T02:05:11.403Z,1.00
2022-10-06T02:07:41.878Z,1.00
2022-10-06T02:10:09.099Z,0.40
2022-10-06T02:12:35.802Z,0.85
2022-10-06T02:15:03.058Z,1.00
2022-10-06T02:17:29.737Z,1.02
2022-10-06T02:19:59.107Z,1.00
2022-10-06T02:22:26.879Z,1.05
2022-10-06T02:24:53.593Z,1.00
2022-10-06T02:27:20.772Z,1.07
2022-10-06T02:29:49.133Z,0.80
2022-10-06T02:32:15.941Z,0.57
2022-10-06T02:34:43.513Z,0.82
2022-10-06T02:37:12.580Z,0.98
2022-10-06T02:39:39.321Z,1.50
2022-10-06T02:42:06.191Z,0.63
2022-10-06T02:44:33.065Z,1.05
2022-10-06T02:47:00.019Z,1.05
2022-10-06T02:49:26.788Z,0.63
2022-10-06T02:51:53.590Z,1.37
2022-10-06T02:54:20.369Z,1.27
2022-10-06T02:56:48.804Z,0.97
2022-10-06T02:59:15.731Z,1.17
2022-10-06T03:01:43.375Z,1.00
2022-10-06T03:04:15.532Z,1.20
2022-10-06T03:06:42.348Z,0.70
2022-10-06T03:09:15.075Z,1.40
2022-10-06T03:11:44.046Z,1.48
2022-10-06T03:14:22.118Z,1.23
2022-10-06T03:16:51.737Z,1.23
2022-10-06T03:19:25.725Z,1.38
2022-10-06T03:21:53.371Z,0.90
2022-10-06T03:24:23.435Z,1.23
2022-10-06T03:26:54.555Z,1.00
2022-10-06T03:29:21.322Z,1.40
2022-10-06T03:31:52.944Z,1.35
2022-10-06T03:34:19.751Z,1.87
2022-10-06T03:36:46.916Z,1.33
2022-10-06T03:39:16.294Z,1.13
2022-10-06T03:41:43.273Z,1.42
2022-10-06T03:44:10.340Z,1.50
2022-10-06T03:46:40.017Z,1.15
2022-10-06T03:51:38.743Z,1.20
2022-10-06T03:54:10.573Z,1.52
2022-10-06T03:56:40.904Z,1.02
2022-10-06T03:59:16.477Z,1.17
2022-10-06T04:01:47.559Z,1.27
2022-10-06T04:04:21.309Z,1.20
2022-10-06T04:06:52.151Z,1.10
2022-10-06T04:09:20.864Z,2.10
2022-10-06T04:11:47.706Z,1.20
2022-10-06T04:14:16.495Z,1.00
2022-10-06T04:16:46.993Z,1.35
2022-10-06T04:19:17.636Z,1.13
2022-10-06T04:21:48.493Z,1.48
2022-10-06T04:24:19.439Z,1.52
2022-10-06T04:26:48.962Z,1.83
2022-10-06T04:29:17.164Z,1.27
2022-10-06T04:31:46.068Z,2.80
2022-10-06T04:34:21.337Z,2.10
2022-10-06T04:36:48.433Z,1.58
2022-10-06T04:39:16.772Z,1.75
2022-10-06T04:41:47.151Z,1.92
2022-10-06T04:44:19.327Z,1.00
2022-10-06T04:46:46.952Z,1.90
2022-10-06T04:49:19.925Z,1.52
2022-10-06T04:51:49.517Z,1.17
2022-10-06T04:54:18.935Z,1.33
2022-10-06T04:56:47.484Z,1.70
2022-10-06T04:59:16.009Z,1.08
2022-10-06T05:01:45.621Z,1.52
2022-10-06T05:04:14.079Z,2.35
2022-10-06T05:06:42.048Z,1.57
2022-10-06T05:09:12.666Z,1.25
2022-10-06T05:11:44.844Z,1.27
2022-10-06T05:14:14.229Z,1.42
2022-10-06T05:16:44.244Z,1.17
2022-10-06T05:19:12.253Z,1.38
2022-10-06T05:21:40.557Z,1.80
2022-10-06T05:24:09.526Z,1.83
2022-10-06T05:26:36.891Z,1.48
2022-10-06T05:29:06.503Z,1.55
2022-10-06T05:31:38.821Z,1.45
2022-10-06T05:34:05.978Z,1.60
2022-10-06T05:36:33.829Z,1.75
2022-10-06T05:39:02.239Z,1.40
2022-10-06T05:41:37.626Z,1.63
2022-10-06T05:44:06.900Z,1.48
2022-10-06T05:46:38.761Z,1.50
2022-10-06T05:49:10.101Z,1.58
2022-10-06T05:51:42.705Z,1.15
2022-10-06T05:54:15.161Z,1.27
2022-10-06T05:56:41.949Z,2.20
2022-10-06T05:59:08.635Z,1.83
2022-10-06T06:01:40.663Z,1.60
2022-10-06T06:04:14.376Z,1.52
2022-10-06T06:06:47.240Z,1.95
2022-10-06T06:09:20.538Z,1.90
2022-10-06T06:11:52.512Z,2.00
2022-10-06T06:14:43.773Z,1.95
2022-10-06T06:17:14.655Z,2.33
2022-10-06T06:19:41.394Z,1.77
2022-10-06T06:22:08.746Z,1.80
2022-10-06T06:24:38.970Z,1.58
2022-10-06T06:27:05.773Z,1.70
2022-10-06T06:29:32.518Z,2.00
2022-10-06T06:31:59.572Z,1.27
2022-10-06T06:34:27.335Z,2.17
2022-10-06T06:36:55.830Z,1.38
2022-10-06T06:39:22.805Z,2.35
2022-10-06T06:41:50.819Z,1.98
2022-10-06T06:44:36.414Z,2.08
2022-10-06T06:47:11.273Z,2.30
2022-10-06T06:49:38.587Z,1.70
2022-10-06T06:52:08.082Z,1.50
2022-10-06T06:54:36.280Z,1.70
2022-10-06T06:57:09.920Z,1.55
2022-10-06T06:59:38.060Z,1.63
2022-10-06T07:02:08.959Z,2.03
2022-10-06T07:04:39.262Z,1.58
2022-10-06T07:07:11.168Z,2.22
2022-10-06T07:09:38.287Z,1.75
2022-10-06T07:12:11.792Z,2.00
2022-10-06T07:15:03.239Z,1.90
2022-10-06T07:17:52.076Z,1.52
2022-10-06T07:20:39.710Z,2.25
2022-10-06T07:23:27.028Z,1.90
2022-10-06T07:25:53.839Z,2.05
2022-10-06T07:28:21.482Z,1.55
2022-10-06T07:30:48.305Z,1.33
2022-10-06T07:33:19.537Z,1.23
2022-10-06T07:35:48.023Z,2.17
2022-10-06T07:38:18.553Z,2.55
2022-10-06T07:43:47.208Z,1.55
2022-10-06T07:46:15.399Z,1.30
2022-10-06T07:48:48.668Z,2.42
2022-10-06T07:51:17.905Z,2.05
2022-10-06T07:53:50.088Z,2.10
2022-10-06T07:56:39.065Z,2.13
2022-10-06T07:59:05.906Z,1.10
2022-10-06T08:01:32.729Z,2.10
2022-10-06T08:03:59.541Z,2.40
2022-10-06T08:06:26.393Z,1.70
2022-10-06T08:08:53.537Z,2.05
2022-10-06T08:11:21.546Z,1.80
2022-10-06T08:13:52.111Z,1.75
2022-10-06T08:16:22.429Z,2.00
2022-10-06T08:18:51.134Z,2.33
2022-10-06T08:21:23.523Z,1.77
2022-10-06T08:23:51.483Z,1.85
2022-10-06T08:26:20.104Z,1.40
2022-10-06T08:28:49.753Z,2.17
2022-10-06T08:31:18.784Z,1.65
2022-10-06T08:33:47.351Z,1.63
2022-10-06T08:36:19.391Z,1.92
2022-10-06T08:38:50.366Z,2.35
2022-10-06T08:41:18.480Z,1.50
2022-10-06T08:43:59.809Z,1.02
2022-10-06T08:46:40.303Z,1.75
2022-10-06T08:49:15.564Z,1.80
2022-10-06T08:51:57.516Z,1.77
2022-10-06T08:54:45.044Z,1.52
2022-10-06T08:57:21.136Z,1.33
2022-10-06T08:59:54.587Z,0.85
2022-10-06T09:02:31.448Z,1.50
2022-10-06T09:05:02.731Z,2.53
2022-10-06T09:07:38.773Z,1.45
2022-10-06T09:10:40.270Z,2.92
2022-10-06T09:13:12.480Z,1.40
2022-10-06T09:15:50.907Z,1.60
2022-10-06T09:18:43.490Z,3.25
2022-10-06T09:21:23.325Z,1.08
2022-10-06T09:24:00.463Z,1.02
2022-10-06T09:26:32.595Z,1.55
2022-10-06T09:29:00.033Z,1.70
2022-10-06T09:31:28.217Z,2.33
2022-10-06T09:34:04.447Z,1.33
2022-10-06T09:36:36.068Z,1.70
2022-10-06T09:39:05.064Z,0.80
2022-10-06T09:41:39.950Z,2.10
2022-10-06T09:44:24.430Z,1.75
2022-10-06T09:46:52.421Z,2.25
2022-10-06T09:49:24.390Z,1.23
2022-10-06T09:52:14.884Z,1.13
2022-10-06T09:54:43.598Z,1.73
2022-10-06T09:57:31.959Z,0.50
2022-10-06T10:00:00.090Z,2.20
2022-10-06T10:02:35.242Z,1.48
2022-10-06T10:05:03.181Z,1.55
2022-10-06T10:07:31.814Z,1.50
2022-10-06T10:10:19.280Z,1.80
2022-10-06T10:12:51.137Z,1.67
2022-10-06T10:15:17.780Z,1.33
2022-10-06T10:17:59.008Z,1.30
2022-10-06T10:20:28.427Z,2.08
2022-10-06T10:23:07.460Z,1.60
2022-10-06T10:25:53.849Z,0.65
2022-10-06T10:28:41.959Z,1.00
2022-10-06T10:31:16.627Z,1.95
2022-10-06T10:34:05.049Z,1.70
2022-10-06T10:36:53.086Z,1.17
2022-10-06T10:39:40.085Z,1.50
2022-10-06T10:45:00.619Z,1.40
2022-10-06T10:47:37.355Z,1.30
2022-10-06T10:50:37.463Z,1.52
2022-10-06T10:53:32.566Z,1.10
2022-10-06T10:56:00.273Z,1.63
2022-10-06T10:58:35.420Z,1.10
2022-10-06T11:01:17.136Z,1.40
2022-10-06T11:03:56.323Z,2.20
2022-10-06T11:06:46.903Z,1.63
2022-10-06T11:09:47.577Z,1.38
2022-10-06T11:12:33.644Z,1.67
2022-10-06T11:15:20.658Z,1.83
2022-10-06T11:17:50.296Z,1.05
2022-10-06T11:20:44.045Z,1.70
2022-10-06T11:23:49.809Z,1.30
2022-10-06T11:26:52.047Z,1.13
2022-10-06T11:29:45.326Z,1.98
2022-10-06T11:32:14.830Z,1.35
2022-10-06T11:34:42.232Z,1.05
2022-10-06T11:39:58.321Z,1.90
2022-10-06T11:42:52.465Z,1.70
2022-10-06T11:45:27.978Z,1.40
2022-10-06T11:48:24.949Z,1.55
2022-10-06T11:50:55.261Z,1.63
2022-10-06T11:53:37.097Z,1.48
2022-10-06T11:56:19.194Z,1.48
2022-10-06T11:58:53.098Z,1.95
2022-10-06T12:01:35.206Z,1.35
2022-10-06T12:04:13.222Z,1.33
2022-10-06T12:06:43.175Z,1.65
2022-10-06T12:09:31.152Z,1.45
2022-10-06T12:12:21.983Z,1.13
2022-10-06T12:17:41.372Z,1.38
2022-10-06T12:20:34.345Z,0.85
2022-10-06T12:23:10.168Z,1.02
2022-10-06T12:26:03.686Z,1.42
2022-10-06T12:28:45.048Z,1.15
2022-10-06T12:32:00.906Z,0.93
2022-10-06T12:34:40.040Z,1.13
2022-10-06T12:37:31.660Z,1.10
2022-10-06T12:40:37.280Z,0.95
2022-10-06T12:43:19.300Z,1.20
2022-10-06T12:46:22.689Z,1.20
2022-10-06T12:49:15.526Z,0.88
2022-10-06T12:51:44.546Z,1.15
2022-10-06T12:54:11.727Z,1.45
2022-10-06T12:56:41.062Z,0.85
2022-10-06T12:59:24.663Z,1.10
2022-10-06T13:02:19.720Z,0.95
2022-10-06T13:04:57.636Z,0.95
2022-10-06T13:07:28.692Z,1.17
2022-10-06T13:10:16.814Z,1.38
2022-10-06T13:12:46.507Z,1.38
2022-10-06T13:15:29.499Z,1.75
2022-10-06T13:18:17.121Z,1.15
2022-10-06T13:20:51.085Z,2.17
2022-10-06T13:23:41.499Z,1.67
2022-10-06T13:26:21.843Z,1.00
2022-10-06T13:28:57.120Z,1.50
2022-10-06T13:31:33.175Z,1.48
2022-10-06T13:34:03.794Z,1.13
2022-10-06T13:36:33.315Z,1.25
2022-10-06T13:39:00.392Z,1.08
2022-10-06T13:41:29.369Z,1.45
2022-10-06T13:44:04.063Z,1.20
2022-10-06T13:46:40.497Z,1.70
2022-10-06T13:49:42.341Z,1.35
2022-10-06T13:52:32.959Z,1.50
2022-10-06T13:55:02.134Z,1.30
2022-10-06T13:57:32.953Z,1.38
2022-10-06T14:00:26.901Z,1.70
2022-10-06T14:02:55.872Z,1.10
2022-10-06T14:05:26.363Z,1.00
2022-10-06T14:07:59.931Z,1.23
2022-10-06T14:10:41.156Z,1.38
2022-10-06T14:13:29.869Z,1.65
2022-10-06T14:16:06.000Z,1.00
2022-10-06T14:18:42.611Z,1.10
2022-10-06T14:21:41.335Z,0.90
2022-10-06T14:24:17.186Z,1.77
2022-10-06T14:26:45.520Z,0.70
2022-10-06T14:29:16.170Z,1.67
2022-10-06T14:31:44.122Z,1.67
2022-10-06T14:34:15.422Z,0.82
2022-10-06T14:36:45.121Z,1.60
2022-10-06T14:39:13.664Z,1.00
2022-10-06T14:41:40.883Z,0.70
2022-10-06T14:44:11.405Z,0.65
2022-10-06T14:46:39.721Z,1.20
2022-10-06T14:49:07.831Z,0.90
2022-10-06T14:51:37.114Z,1.35
2022-10-06T14:54:05.693Z,1.00
2022-10-06T14:56:37.704Z,0.70
2022-10-06T14:59:06.403Z,2.15
2022-10-06T15:01:35.501Z,4.45
2022-10-06T15:04:09.219Z,1.05
2022-10-06T15:07:00.933Z,1.15
2022-10-06T15:09:30.821Z,1.30
2022-10-06T15:11:58.830Z,1.55
2022-10-06T15:14:25.692Z,1.58
2022-10-06T15:16:55.628Z,1.25
2022-10-06T15:19:22.325Z,1.38
2022-10-06T15:21:48.999Z,1.10
2022-10-06T15:24:18.763Z,1.30
2022-10-06T15:27:05.167Z,1.95
2022-10-06T15:29:33.853Z,1.23
2022-10-06T15:32:03.010Z,1.13
2022-10-06T15:34:33.392Z,1.60
2022-10-06T15:37:01.130Z,1.15
2022-10-06T15:39:30.422Z,1.65
2022-10-06T15:42:00.335Z,2.10
2022-10-06T15:44:27.139Z,2.15
2022-10-06T15:46:57.925Z,1.58
2022-10-06T15:49:26.637Z,1.88
2022-10-06T15:51:59.478Z,1.42
2022-10-06T15:54:37.826Z,1.30
2022-10-06T15:57:10.327Z,1.55
2022-10-06T15:59:39.832Z,1.77
2022-10-06T16:02:14.500Z,1.80
2022-10-06T16:05:08.815Z,1.83
2022-10-06T16:07:35.680Z,2.45
2022-10-06T16:10:03.127Z,1.73
2022-10-06T16:12:29.917Z,1.42
2022-10-06T16:14:56.586Z,2.40
2022-10-06T16:17:23.264Z,1.87
2022-10-06T16:19:50.063Z,1.47
2022-10-06T16:22:19.210Z,2.10
2022-10-06T16:24:45.885Z,2.65
2022-10-06T16:27:14.401Z,2.40
2022-10-06T16:29:41.270Z,2.72
2022-10-06T16:32:11.239Z,1.98
2022-10-06T16:34:37.952Z,2.35
2022-10-06T16:37:04.595Z,2.20
2022-10-06T16:39:31.566Z,2.03
2022-10-06T16:41:58.380Z,2.53
2022-10-06T16:44:26.688Z,2.10
2022-10-06T16:46:54.480Z,1.73
2022-10-06T16:49:21.503Z,2.22
2022-10-06T16:51:48.211Z,1.60
2022-10-06T16:54:17.206Z,1.77
2022-10-06T16:56:46.202Z,1.90
2022-10-06T16:59:17.877Z,1.60
2022-10-06T17:01:45.552Z,1.65
2022-10-06T17:04:21.664Z,1.42
2022-10-06T17:06:51.082Z,2.00
2022-10-06T17:09:22.098Z,1.63
2022-10-06T17:12:00.329Z,1.48
2022-10-06T17:14:28.569Z,1.40
2022-10-06T17:16:58.135Z,1.70
2022-10-06T17:19:31.024Z,1.33
2022-10-06T17:22:01.744Z,1.77
2022-10-06T17:24:29.665Z,1.48
2022-10-06T17:27:04.212Z,1.60
2022-10-06T17:29:30.954Z,1.75
2022-10-06T17:31:59.924Z,1.87
2022-10-06T17:34:33.415Z,1.63
2022-10-06T17:37:01.454Z,1.33
2022-10-06T17:41:54.801Z,2.30
2022-10-06T17:44:25.619Z,1.63
2022-10-06T17:46:55.249Z,1.33
2022-10-06T17:49:24.315Z,1.33
2022-10-06T17:51:52.297Z,1.55
2022-10-06T17:54:21.636Z,1.85
2022-10-06T17:56:50.269Z,1.52
2022-10-06T17:59:21.500Z,2.13
2022-10-06T18:01:49.015Z,1.60
2022-10-06T18:04:16.129Z,1.88
2022-10-06T18:06:44.545Z,2.17
2022-10-06T18:09:11.648Z,2.00
2022-10-06T18:11:41.534Z,1.70
2022-10-06T18:14:21.713Z,1.75
2022-10-06T18:16:55.653Z,2.35
2022-10-06T18:19:29.074Z,2.63
2022-10-06T18:21:58.915Z,2.10
2022-10-06T18:24:28.062Z,1.67
2022-10-06T18:26:56.591Z,2.00
2022-10-06T18:29:25.732Z,2.35
2022-10-06T18:32:01.554Z,1.60
2022-10-06T18:37:32.013Z,2.72
2022-10-06T18:39:58.659Z,2.63
2022-10-06T18:42:25.485Z,2.63
2022-10-06T18:45:10.646Z,2.58
2022-10-06T18:47:55.806Z,2.30
2022-10-06T18:50:23.380Z,2.88
2022-10-06T18:52:50.062Z,2.63
2022-10-06T18:55:17.095Z,2.67
2022-10-06T18:57:44.922Z,2.58
2022-10-06T19:00:12.448Z,2.72
2022-10-06T19:02:39.089Z,3.25
2022-10-06T19:05:06.218Z,3.10
2022-10-06T19:07:32.848Z,2.67
2022-10-06T19:09:59.557Z,2.50
2022-10-06T19:12:26.243Z,2.73
2022-10-06T19:14:52.973Z,2.50
2022-10-06T19:17:22.672Z,2.78
2022-10-06T19:19:51.064Z,2.33
2022-10-06T19:22:19.848Z,2.80
2022-10-06T19:24:48.371Z,2.72
2022-10-06T19:27:20.588Z,3.15
2022-10-06T19:29:56.792Z,2.10
2022-10-06T19:32:27.427Z,2.35
2022-10-06T19:34:57.715Z,2.75
2022-10-06T19:37:28.830Z,3.88
2022-10-06T19:39:57.023Z,2.75
2022-10-06T19:42:44.746Z,2.33
2022-10-06T19:45:12.354Z,2.50
2022-10-06T19:50:11.677Z,2.63
2022-10-06T19:52:40.010Z,3.78
2022-10-06T19:55:07.057Z,2.47
2022-10-06T19:57:33.911Z,3.20
2022-10-06T20:00:01.786Z,2.83
2022-10-06T20:02:28.843Z,2.40
2022-10-06T20:04:56.193Z,2.63
2022-10-06T20:07:27.141Z,2.55
2022-10-06T20:09:53.932Z,2.10
2022-10-06T20:12:24.561Z,2.60
2022-10-06T20:14:53.408Z,2.47
2022-10-06T20:17:20.998Z,2.85
2022-10-06T20:19:47.951Z,2.60
2022-10-06T20:22:14.617Z,3.43
2022-10-06T20:24:41.460Z,2.95
2022-10-06T20:27:08.898Z,3.50
2022-10-06T20:29:35.728Z,2.42
2022-10-06T20:32:05.353Z,2.17
2022-10-06T20:34:33.107Z,3.20
2022-10-06T20:39:48.085Z,2.75
2022-10-06T20:42:15.630Z,3.45
2022-10-06T20:44:43.269Z,2.45
2022-10-06T20:47:12.155Z,2.25
2022-10-06T20:49:39.098Z,3.13
2022-10-06T20:52:06.279Z,2.78
2022-10-06T20:54:35.680Z,3.17
2022-10-06T20:57:05.168Z,3.08
2022-10-06T20:59:35.005Z,3.50
2022-10-06T21:02:02.799Z,3.05
2022-10-06T21:06:57.795Z,2.70
2022-10-06T21:09:25.136Z,2.83
2022-10-06T21:11:52.260Z,2.55
2022-10-06T21:14:19.814Z,4.00
2022-10-06T21:16:48.357Z,2.72
2022-10-06T21:19:17.401Z,2.65
2022-10-06T21:21:49.888Z,2.75
2022-10-06T21:24:17.360Z,2.50
2022-10-06T21:26:44.317Z,2.75
2022-10-06T21:29:15.798Z,2.50
2022-10-06T21:31:44.494Z,2.50
2022-10-06T21:34:12.061Z,2.42
2022-10-06T21:36:39.322Z,2.40
2022-10-06T21:39:06.817Z,2.60
2022-10-06T21:41:41.743Z,2.22
2022-10-06T21:44:10.038Z,1.95
2022-10-06T21:46:38.240Z,2.40
2022-10-06T21:49:08.870Z,2.42
2022-10-06T21:51:36.690Z,2.22
2022-10-06T21:54:04.513Z,1.95
2022-10-06T21:56:34.141Z,1.48
2022-10-06T21:59:01.870Z,1.88
2022-10-06T22:01:31.551Z,1.98
2022-10-06T22:04:00.353Z,2.80
2022-10-06T22:06:29.265Z,2.35
2022-10-06T22:08:57.686Z,2.58
2022-10-06T22:11:36.779Z,2.13
2022-10-06T22:14:06.052Z,2.08
2022-10-06T22:16:34.785Z,2.20
2022-10-06T22:19:04.815Z,1.83
2022-10-06T22:21:37.976Z,1.60
2022-10-06T22:24:16.754Z,2.30
2022-10-06T22:26:44.603Z,2.75
2022-10-06T22:29:13.829Z,1.98
2022-10-06T22:31:43.662Z,2.47
2022-10-06T22:34:12.935Z,2.58
2022-10-06T22:36:40.223Z,2.53
2022-10-06T22:39:07.487Z,2.83
2022-10-06T22:41:34.421Z,2.83
2022-10-06T22:44:01.423Z,2.85
2022-10-06T22:46:30.842Z,2.53
2022-10-06T22:48:58.578Z,2.33
2022-10-06T22:51:25.700Z,2.47
2022-10-06T22:53:57.513Z,3.10
2022-10-06T22:56:28.808Z,2.55
2022-10-06T22:58:59.777Z,2.58
2022-10-06T23:01:27.938Z,2.47
2022-10-06T23:03:55.681Z,2.42
2022-10-06T23:06:23.460Z,2.30
2022-10-06T23:08:50.491Z,2.50
2022-10-06T23:11:19.939Z,2.92
2022-10-06T23:13:48.457Z,3.15
2022-10-06T23:16:17.539Z,2.55
2022-10-06T23:18:45.128Z,2.65
2022-10-06T23:21:22.794Z,2.63
2022-10-06T23:23:59.245Z,2.60
2022-10-06T23:26:26.633Z,2.42
2022-10-06T23:28:56.817Z,2.58
2022-10-06T23:31:24.038Z,2.70
2022-10-06T23:33:51.298Z,2.85
2022-10-06T23:36:18.909Z,2.88
2022-10-06T23:38:46.452Z,2.70
2022-10-06T23:41:13.923Z,2.80
2022-10-06T23:43:41.180Z,3.00
2022-10-06T23:46:08.307Z,2.95
2022-10-06T23:48:35.326Z,2.67
2022-10-06T23:51:05.305Z,3.55
2022-10-06T23:53:33.644Z,2.38
2022-10-06T23:56:00.646Z,3.20
2022-10-06T23:58:28.444Z,2.35
